WetterOnline ( https://www.wetteronline.ch )

Wetter aktuell Rhön (in 800m)

Aktuelles Wetter: Wasserkuppe (925m)

6-stündlich | Neueste Meldungen
Ortszeit Temperatur Wetter
So, 21.07. 20:00 18.9° C wolkig
So, 21.07. 14:00 19.1° C wolkig
So, 21.07. 8:00 14.2° C bedeckt
So, 21.07. 2:00 15.3° C leicht bewölkt
Sa, 20.07. 20:00 18.2° C leichte Gewitter
Sa, 20.07. 14:00 23.7° C leicht bewölkt
Sa, 20.07. 8:00 15.4° C leicht bewölkt
Sa, 20.07. 2:00 12.8° C leicht bewölkt
Ortszeit Temperatur Wetter
Mo, 22.07. 1:00 14.6° C wolkig
Mo, 22.07. 0:40 14.8° C leicht bewölkt
Mo, 22.07. 0:30 15.2° C fast wolkenlos
Mo, 22.07. 0:20 15.2° C fast wolkenlos
Mo, 22.07. 0:10 15.4° C wolkenlos
Mo, 22.07. 0:00 15.6° C fast wolkenlos
So, 21.07. 23:50 15.6° C fast wolkenlos
So, 21.07. 23:30 15.9° C leicht bewölkt
So, 21.07. 23:00 16.1° C wolkig
So, 21.07. 22:30 16.2° C wolkig
So, 21.07. 22:00 16.4° C wolkig
Ortszeit Relative Feuchte Sichtweite
So, 21.07. 20:00 55% 50 km
So, 21.07. 14:00 56% >70 km
So, 21.07. 8:00 86% 45 km
So, 21.07. 2:00 81% 70 km
Sa, 20.07. 20:00 71% 50 km
Sa, 20.07. 14:00 53% 55 km
Sa, 20.07. 8:00 83% 55 km
Sa, 20.07. 2:00 87% 50 km
Ortszeit Relative Feuchte Sichtweite
Mo, 22.07. 1:00 67% 45 km
Mo, 22.07. 0:40 66% -
Mo, 22.07. 0:30 64% 45 km
Mo, 22.07. 0:20 64% -
Mo, 22.07. 0:10 64% -
Mo, 22.07. 0:00 63% 45 km
So, 21.07. 23:50 63% -
So, 21.07. 23:30 62% 40 km
So, 21.07. 23:00 61% 50 km
So, 21.07. 22:30 62% 60 km
So, 21.07. 22:00 62% 45 km
Ortszeit Niederschlagsmenge Niederschlagsart
So, 21.07. 20:00 0.0 l/m2 in 12 Std. -
So, 21.07. 14:00 0.0 l/m2 in 6 Std. -
So, 21.07. 8:00 0.1 l/m2 in 12 Std. -
So, 21.07. 2:00 0.1 l/m2 in 6 Std. Gewitter, Schauer
Sa, 20.07. 20:00 0.2 l/m2 in 12 Std. Schauer
Sa, 20.07. 14:00 0.0 l/m2 in 6 Std. -
Sa, 20.07. 8:00 0.1 l/m2 in 12 Std. -
Sa, 20.07. 2:00 0.0 l/m2 in 6 Std. -
Ortszeit Niederschlagsmenge Niederschlagsart
Mo, 22.07. 1:00 0.0 l/m2 in 1 Std. -
Mo, 22.07. 0:40 keine Meldung -
Mo, 22.07. 0:30 0.0 l/m2 in 1 Std. -
Mo, 22.07. 0:20 keine Meldung -
Mo, 22.07. 0:10 keine Meldung -
Mo, 22.07. 0:00 0.0 l/m2 in 1 Std. -
So, 21.07. 23:50 keine Meldung -
So, 21.07. 23:30 0.0 l/m2 in 1 Std. -
So, 21.07. 23:00 0.0 l/m2 in 1 Std. -
So, 21.07. 22:30 0.0 l/m2 in 1 Std. -
So, 21.07. 22:00 0.0 l/m2 in 1 Std. -
Ortszeit Stärke Spitze Richtung
km/h Bft. km/h Grad Sektor
So, 21.07. 20:00 18 3 36 340° N
So, 21.07. 14:00 17 3 41 300° NW
So, 21.07. 8:00 11 2 22 270° W
So, 21.07. 2:00 11 2 50 310° NW
Sa, 20.07. 20:00 17 3 56 250° W
Sa, 20.07. 14:00 25 4 43 190° S
Sa, 20.07. 8:00 22 4 29 180° S
Sa, 20.07. 2:00 11 2 18 220° SW
Ortszeit Stärke Spitze Richtung
km/h Bft. km/h Grad Sektor
Mo, 22.07. 1:00 6 1 9 10° N
Mo, 22.07. 0:40 6 1 - 10° N
Mo, 22.07. 0:30 7 2 11 10° N
Mo, 22.07. 0:20 7 2 - 10° N
Mo, 22.07. 0:10 7 2 - 10° N
Mo, 22.07. 0:00 9 2 15 360° N
So, 21.07. 23:50 9 2 - 360° N
So, 21.07. 23:30 11 2 14 340° N
So, 21.07. 23:00 11 2 14 340° N
So, 21.07. 22:30 11 2 14 350° N
So, 21.07. 22:00 13 3 17 360° N
Ortszeit Untergrenze Bedeckung Gattung
total tief tief mittel hoch
So, 21.07. 20:00 6300 m 6/8 2/8 - - -
So, 21.07. 14:00 960 m 5/8 5/8 - - -
So, 21.07. 8:00 480 m 8/8 8/8 - - -
So, 21.07. 2:00 1200 m 3/8 2/8 Sc - Ci
Sa, 20.07. 20:00 4800 m 7/8 5/8 Cb As -
Sa, 20.07. 14:00 1050 m 7/8 1/8 Cu Ac Ci
Sa, 20.07. 8:00 9000 m 5/8 0/8 - - Ci
Sa, 20.07. 2:00 7200 m 7/8 0/8 - - Cs
Ortszeit Bedeckungsgrad in Achtel und Wolkenuntergrenze
Mo, 22.07. 1:00 1(8100m) 8(9000m) 8(10500m)
Mo, 22.07. 0:40 1(8100m) 6(9000m) 6(10500m)
Mo, 22.07. 0:30 1(8100m) 4(9000m)
Mo, 22.07. 0:20 1(8100m)
Mo, 22.07. 0:10 keine Wolken
Mo, 22.07. 0:00 1(8400m)
So, 21.07. 23:50 1(8400m)
So, 21.07. 23:30 1(6600m) 5(9000m) 6(9000m)
So, 21.07. 23:00 2(6600m) 8(8700m) 8(9000m)
So, 21.07. 22:30 8(8700m)
So, 21.07. 22:00 1(6900m) 8(8400m) 8(9000m)
Ortszeit Stationsdruck (hPa) Tendenz (hPa in 3 Std.)
So, 21.07. 20:00 918 + 0,8
So, 21.07. 14:00 917 + 1,0
So, 21.07. 8:00 914 + 1,4
So, 21.07. 2:00 912 + 1,0
Sa, 20.07. 20:00 910 + 0,2
Sa, 20.07. 14:00 911 + 0,1
Sa, 20.07. 8:00 911 - 0,2
Sa, 20.07. 2:00 911 - 0,1
Ortszeit Stationsdruck (hPa) Tendenz (hPa in 3 Std.)
Mo, 22.07. 1:00 919 + 0,5
Mo, 22.07. 0:40 919 keine Meldung
Mo, 22.07. 0:30 919 + 0,8
Mo, 22.07. 0:20 919 keine Meldung
Mo, 22.07. 0:10 919 keine Meldung
Mo, 22.07. 0:00 919 + 1,1
So, 21.07. 23:50 919 keine Meldung
So, 21.07. 23:30 919 + 0,9
So, 21.07. 23:00 919 + 1,0
So, 21.07. 22:30 918 + 0,9
So, 21.07. 22:00 918 + 1,2
Ortszeit Schneehöhe (cm)
So, 21.07. 20:00 -
So, 21.07. 14:00 -
So, 21.07. 8:00 -
So, 21.07. 2:00 0
Sa, 20.07. 20:00 0
Sa, 20.07. 14:00 0
Sa, 20.07. 8:00 0
Sa, 20.07. 2:00 0
Ortszeit Schneehöhe (cm)
Mo, 22.07. 1:00 -
Mo, 22.07. 0:40 -
Mo, 22.07. 0:30 -
Mo, 22.07. 0:20 -
Mo, 22.07. 0:10 -
Mo, 22.07. 0:00 -
So, 21.07. 23:50 -
So, 21.07. 23:30 -
So, 21.07. 23:00 -
So, 21.07. 22:30 -
So, 21.07. 22:00 -
Link zu dieser Seite / Seite empfehlen

Das Wetter in ...